sensor_id;sensor_type;location;lat;lon;timestamp;P1;durP1;ratioP1;P2;durP2;ratioP2
19024;SDS011;9645;51.448;6.260;2022-10-31T00:02:07;33.83;;;14.40;;
19024;SDS011;9645;51.448;6.260;2022-10-31T00:04:35;32.03;;;14.10;;
19024;SDS011;9645;51.448;6.260;2022-10-31T00:07:02;26.23;;;12.77;;
19024;SDS011;9645;51.448;6.260;2022-10-31T00:09:29;37.57;;;14.23;;
19024;SDS011;9645;51.448;6.260;2022-10-31T00:11:56;29.33;;;12.63;;
19024;SDS011;9645;51.448;6.260;2022-10-31T00:14:23;28.87;;;13.07;;
19024;SDS011;9645;51.448;6.260;2022-10-31T00:16:50;28.50;;;13.00;;
19024;SDS011;9645;51.448;6.260;2022-10-31T00:19:17;23.60;;;12.43;;
19024;SDS011;9645;51.448;6.260;2022-10-31T00:21:45;35.00;;;13.90;;
19024;SDS011;9645;51.448;6.260;2022-10-31T00:24:12;35.27;;;13.73;;
19024;SDS011;9645;51.448;6.260;2022-10-31T00:26:39;29.90;;;13.83;;
19024;SDS011;9645;51.448;6.260;2022-10-31T00:29:06;34.80;;;13.83;;
19024;SDS011;9645;51.448;6.260;2022-10-31T00:31:33;28.30;;;14.27;;
19024;SDS011;9645;51.448;6.260;2022-10-31T00:34:00;26.13;;;11.57;;
19024;SDS011;9645;51.448;6.260;2022-10-31T00:36:28;29.00;;;12.60;;
19024;SDS011;9645;51.448;6.260;2022-10-31T00:38:57;23.67;;;12.10;;
19024;SDS011;9645;51.448;6.260;2022-10-31T00:41:25;25.40;;;11.97;;
19024;SDS011;9645;51.448;6.260;2022-10-31T00:43:52;25.20;;;10.83;;
19024;SDS011;9645;51.448;6.260;2022-10-31T00:46:19;24.73;;;11.90;;
19024;SDS011;9645;51.448;6.260;2022-10-31T00:48:46;21.07;;;10.83;;
19024;SDS011;9645;51.448;6.260;2022-10-31T00:51:14;31.10;;;13.10;;
19024;SDS011;9645;51.448;6.260;2022-10-31T00:53:41;24.90;;;11.03;;
19024;SDS011;9645;51.448;6.260;2022-10-31T00:56:09;22.77;;;11.47;;
19024;SDS011;9645;51.448;6.260;2022-10-31T00:58:36;24.67;;;10.97;;
19024;SDS011;9645;51.448;6.260;2022-10-31T01:01:04;23.70;;;12.47;;
19024;SDS011;9645;51.448;6.260;2022-10-31T01:03:31;28.00;;;11.53;;
19024;SDS011;9645;51.448;6.260;2022-10-31T01:06:00;26.50;;;11.40;;
19024;SDS011;9645;51.448;6.260;2022-10-31T01:08:28;24.67;;;11.80;;
19024;SDS011;9645;51.448;6.260;2022-10-31T01:10:59;24.23;;;11.97;;
19024;SDS011;9645;51.448;6.260;2022-10-31T01:13:28;29.17;;;13.00;;
19024;SDS011;9645;51.448;6.260;2022-10-31T01:15:56;35.53;;;14.70;;
19024;SDS011;9645;51.448;6.260;2022-10-31T01:18:24;24.77;;;13.03;;
19024;SDS011;9645;51.448;6.260;2022-10-31T01:20:58;29.70;;;14.20;;
19024;SDS011;9645;51.448;6.260;2022-10-31T01:23:26;23.17;;;11.20;;
19024;SDS011;9645;51.448;6.260;2022-10-31T01:26:01;26.53;;;13.60;;
19024;SDS011;9645;51.448;6.260;2022-10-31T01:28:30;34.70;;;14.83;;
19024;SDS011;9645;51.448;6.260;2022-10-31T01:30:59;36.30;;;14.70;;
19024;SDS011;9645;51.448;6.260;2022-10-31T01:33:27;27.10;;;13.10;;
19024;SDS011;9645;51.448;6.260;2022-10-31T01:35:54;30.50;;;14.30;;
19024;SDS011;9645;51.448;6.260;2022-10-31T01:38:21;23.33;;;12.33;;
19024;SDS011;9645;51.448;6.260;2022-10-31T01:40:48;32.03;;;15.30;;
19024;SDS011;9645;51.448;6.260;2022-10-31T01:43:15;27.67;;;11.83;;
19024;SDS011;9645;51.448;6.260;2022-10-31T01:45:44;28.50;;;12.77;;
19024;SDS011;9645;51.448;6.260;2022-10-31T01:48:16;37.97;;;13.47;;
19024;SDS011;9645;51.448;6.260;2022-10-31T01:50:47;28.20;;;12.52;;
19024;SDS011;9645;51.448;6.260;2022-10-31T01:53:17;27.30;;;12.50;;
19024;SDS011;9645;51.448;6.260;2022-10-31T01:55:44;35.42;;;14.55;;
19024;SDS011;9645;51.448;6.260;2022-10-31T01:58:14;31.10;;;12.90;;
19024;SDS011;9645;51.448;6.260;2022-10-31T02:00:48;34.80;;;13.87;;
19024;SDS011;9645;51.448;6.260;2022-10-31T02:03:17;31.77;;;13.00;;
19024;SDS011;9645;51.448;6.260;2022-10-31T02:05:46;28.50;;;13.07;;
19024;SDS011;9645;51.448;6.260;2022-10-31T02:08:16;30.33;;;13.73;;
19024;SDS011;9645;51.448;6.260;2022-10-31T02:10:46;34.20;;;13.90;;
19024;SDS011;9645;51.448;6.260;2022-10-31T02:13:13;29.80;;;12.80;;
19024;SDS011;9645;51.448;6.260;2022-10-31T02:15:41;31.73;;;13.60;;
19024;SDS011;9645;51.448;6.260;2022-10-31T02:18:12;34.23;;;14.23;;
19024;SDS011;9645;51.448;6.260;2022-10-31T02:20:41;28.70;;;13.63;;
19024;SDS011;9645;51.448;6.260;2022-10-31T02:26:25;34.10;;;14.03;;
19024;SDS011;9645;51.448;6.260;2022-10-31T02:29:06;26.97;;;12.93;;
19024;SDS011;9645;51.448;6.260;2022-10-31T02:31:52;31.33;;;13.30;;
19024;SDS011;9645;51.448;6.260;2022-10-31T02:34:27;27.47;;;12.33;;
19024;SDS011;9645;51.448;6.260;2022-10-31T02:37:03;34.63;;;13.07;;
19024;SDS011;9645;51.448;6.260;2022-10-31T02:39:37;28.97;;;12.23;;
19024;SDS011;9645;51.448;6.260;2022-10-31T02:42:12;28.50;;;12.73;;
19024;SDS011;9645;51.448;6.260;2022-10-31T02:44:44;26.97;;;12.40;;
19024;SDS011;9645;51.448;6.260;2022-10-31T02:47:21;37.03;;;12.90;;
19024;SDS011;9645;51.448;6.260;2022-10-31T02:49:53;27.37;;;13.10;;
19024;SDS011;9645;51.448;6.260;2022-10-31T02:52:26;24.27;;;11.70;;
19024;SDS011;9645;51.448;6.260;2022-10-31T02:54:53;26.90;;;11.70;;
19024;SDS011;9645;51.448;6.260;2022-10-31T02:57:22;31.73;;;13.07;;
19024;SDS011;9645;51.448;6.260;2022-10-31T02:59:55;30.03;;;12.43;;
19024;SDS011;9645;51.448;6.260;2022-10-31T03:02:28;33.97;;;14.20;;
19024;SDS011;9645;51.448;6.260;2022-10-31T03:05:09;30.20;;;12.00;;
19024;SDS011;9645;51.448;6.260;2022-10-31T03:07:46;21.77;;;12.00;;
19024;SDS011;9645;51.448;6.260;2022-10-31T03:10:20;22.70;;;11.53;;
19024;SDS011;9645;51.448;6.260;2022-10-31T03:12:55;27.88;;;11.32;;
19024;SDS011;9645;51.448;6.260;2022-10-31T03:15:28;23.90;;;11.43;;
19024;SDS011;9645;51.448;6.260;2022-10-31T03:18:02;30.13;;;12.00;;
19024;SDS011;9645;51.448;6.260;2022-10-31T03:20:34;24.98;;;12.25;;
19024;SDS011;9645;51.448;6.260;2022-10-31T03:23:04;26.67;;;12.60;;
19024;SDS011;9645;51.448;6.260;2022-10-31T03:25:35;31.73;;;12.75;;
19024;SDS011;9645;51.448;6.260;2022-10-31T03:28:04;23.75;;;12.35;;
19024;SDS011;9645;51.448;6.260;2022-10-31T03:30:33;27.83;;;12.80;;
19024;SDS011;9645;51.448;6.260;2022-10-31T03:33:06;22.55;;;11.35;;
19024;SDS011;9645;51.448;6.260;2022-10-31T03:35:37;34.25;;;12.43;;
19024;SDS011;9645;51.448;6.260;2022-10-31T03:38:10;24.15;;;11.82;;
19024;SDS011;9645;51.448;6.260;2022-10-31T03:40:39;29.98;;;12.95;;
19024;SDS011;9645;51.448;6.260;2022-10-31T03:43:10;33.42;;;15.30;;
19024;SDS011;9645;51.448;6.260;2022-10-31T03:45:41;36.28;;;14.63;;
19024;SDS011;9645;51.448;6.260;2022-10-31T03:48:12;38.08;;;14.05;;
19024;SDS011;9645;51.448;6.260;2022-10-31T03:50:42;37.53;;;14.20;;
19024;SDS011;9645;51.448;6.260;2022-10-31T03:53:14;29.23;;;13.48;;
19024;SDS011;9645;51.448;6.260;2022-10-31T03:55:47;31.35;;;14.48;;
19024;SDS011;9645;51.448;6.260;2022-10-31T03:58:20;30.85;;;13.05;;
19024;SDS011;9645;51.448;6.260;2022-10-31T04:00:50;28.33;;;12.95;;
19024;SDS011;9645;51.448;6.260;2022-10-31T04:03:21;29.13;;;13.13;;
19024;SDS011;9645;51.448;6.260;2022-10-31T04:05:52;24.60;;;13.10;;
19024;SDS011;9645;51.448;6.260;2022-10-31T04:08:23;30.40;;;12.80;;
19024;SDS011;9645;51.448;6.260;2022-10-31T04:10:54;29.63;;;12.77;;
19024;SDS011;9645;51.448;6.260;2022-10-31T04:13:24;28.33;;;12.93;;
19024;SDS011;9645;51.448;6.260;2022-10-31T04:15:54;23.30;;;12.40;;
19024;SDS011;9645;51.448;6.260;2022-10-31T04:18:24;31.90;;;14.23;;
19024;SDS011;9645;51.448;6.260;2022-10-31T04:20:59;27.30;;;12.35;;
19024;SDS011;9645;51.448;6.260;2022-10-31T04:23:26;29.23;;;13.13;;
19024;SDS011;9645;51.448;6.260;2022-10-31T04:25:54;28.52;;;12.45;;
19024;SDS011;9645;51.448;6.260;2022-10-31T04:28:21;27.65;;;14.40;;
19024;SDS011;9645;51.448;6.260;2022-10-31T04:30:48;27.88;;;12.45;;
19024;SDS011;9645;51.448;6.260;2022-10-31T04:33:15;38.15;;;13.48;;
19024;SDS011;9645;51.448;6.260;2022-10-31T04:35:44;25.15;;;12.02;;
19024;SDS011;9645;51.448;6.260;2022-10-31T04:38:11;28.88;;;13.30;;
19024;SDS011;9645;51.448;6.260;2022-10-31T04:40:38;28.88;;;12.82;;
19024;SDS011;9645;51.448;6.260;2022-10-31T04:43:05;26.25;;;12.25;;
19024;SDS011;9645;51.448;6.260;2022-10-31T04:45:32;24.17;;;11.57;;
19024;SDS011;9645;51.448;6.260;2022-10-31T04:47:59;23.65;;;12.05;;
19024;SDS011;9645;51.448;6.260;2022-10-31T04:50:26;29.85;;;12.85;;
19024;SDS011;9645;51.448;6.260;2022-10-31T04:52:54;30.38;;;14.02;;
19024;SDS011;9645;51.448;6.260;2022-10-31T04:55:21;37.25;;;14.38;;
19024;SDS011;9645;51.448;6.260;2022-10-31T04:57:48;30.92;;;13.13;;
19024;SDS011;9645;51.448;6.260;2022-10-31T05:00:17;23.13;;;12.32;;
19024;SDS011;9645;51.448;6.260;2022-10-31T05:02:46;31.20;;;14.25;;
19024;SDS011;9645;51.448;6.260;2022-10-31T05:05:13;30.40;;;13.80;;
19024;SDS011;9645;51.448;6.260;2022-10-31T05:07:41;41.20;;;14.95;;
19024;SDS011;9645;51.448;6.260;2022-10-31T05:10:12;29.30;;;14.73;;
19024;SDS011;9645;51.448;6.260;2022-10-31T05:12:45;27.08;;;13.50;;
19024;SDS011;9645;51.448;6.260;2022-10-31T05:15:13;29.83;;;14.35;;
19024;SDS011;9645;51.448;6.260;2022-10-31T05:17:40;45.10;;;17.55;;
19024;SDS011;9645;51.448;6.260;2022-10-31T05:20:08;43.63;;;16.08;;
19024;SDS011;9645;51.448;6.260;2022-10-31T05:22:35;31.15;;;13.68;;
19024;SDS011;9645;51.448;6.260;2022-10-31T05:25:02;36.22;;;14.70;;
19024;SDS011;9645;51.448;6.260;2022-10-31T05:27:31;39.17;;;17.05;;
19024;SDS011;9645;51.448;6.260;2022-10-31T05:29:57;41.05;;;16.73;;
19024;SDS011;9645;51.448;6.260;2022-10-31T05:32:24;31.80;;;16.05;;
19024;SDS011;9645;51.448;6.260;2022-10-31T05:34:51;36.15;;;16.42;;
19024;SDS011;9645;51.448;6.260;2022-10-31T05:37:18;36.22;;;15.98;;
19024;SDS011;9645;51.448;6.260;2022-10-31T05:39:45;34.40;;;16.55;;
19024;SDS011;9645;51.448;6.260;2022-10-31T05:42:12;35.47;;;16.83;;
19024;SDS011;9645;51.448;6.260;2022-10-31T05:44:40;36.03;;;17.70;;
19024;SDS011;9645;51.448;6.260;2022-10-31T05:47:07;37.13;;;17.70;;
19024;SDS011;9645;51.448;6.260;2022-10-31T05:49:34;36.28;;;16.00;;
19024;SDS011;9645;51.448;6.260;2022-10-31T05:52:01;39.53;;;19.25;;
19024;SDS011;9645;51.448;6.260;2022-10-31T05:54:28;38.50;;;17.98;;
19024;SDS011;9645;51.448;6.260;2022-10-31T05:56:55;40.08;;;18.38;;
19024;SDS011;9645;51.448;6.260;2022-10-31T05:59:22;38.17;;;16.75;;
19024;SDS011;9645;51.448;6.260;2022-10-31T06:01:51;37.15;;;17.05;;
19024;SDS011;9645;51.448;6.260;2022-10-31T06:04:18;41.00;;;18.65;;
19024;SDS011;9645;51.448;6.260;2022-10-31T06:06:45;39.85;;;18.27;;
19024;SDS011;9645;51.448;6.260;2022-10-31T06:09:12;42.17;;;19.83;;
19024;SDS011;9645;51.448;6.260;2022-10-31T06:11:38;42.42;;;18.98;;
19024;SDS011;9645;51.448;6.260;2022-10-31T06:14:05;36.53;;;16.75;;
19024;SDS011;9645;51.448;6.260;2022-10-31T06:16:32;33.83;;;15.88;;
19024;SDS011;9645;51.448;6.260;2022-10-31T06:19:01;39.00;;;18.33;;
19024;SDS011;9645;51.448;6.260;2022-10-31T06:21:28;37.50;;;18.00;;
19024;SDS011;9645;51.448;6.260;2022-10-31T06:23:55;35.90;;;18.40;;
19024;SDS011;9645;51.448;6.260;2022-10-31T06:26:22;36.30;;;17.27;;
19024;SDS011;9645;51.448;6.260;2022-10-31T06:28:49;34.85;;;16.77;;
19024;SDS011;9645;51.448;6.260;2022-10-31T06:31:16;35.20;;;17.38;;
19024;SDS011;9645;51.448;6.260;2022-10-31T06:33:43;32.85;;;15.98;;
19024;SDS011;9645;51.448;6.260;2022-10-31T06:36:11;33.55;;;15.65;;
19024;SDS011;9645;51.448;6.260;2022-10-31T06:38:38;29.75;;;15.70;;
19024;SDS011;9645;51.448;6.260;2022-10-31T06:41:06;41.33;;;16.65;;
19024;SDS011;9645;51.448;6.260;2022-10-31T06:43:33;32.05;;;15.10;;
19024;SDS011;9645;51.448;6.260;2022-10-31T06:46:01;32.10;;;15.35;;
19024;SDS011;9645;51.448;6.260;2022-10-31T06:48:29;30.42;;;15.57;;
19024;SDS011;9645;51.448;6.260;2022-10-31T06:50:57;36.25;;;16.55;;
19024;SDS011;9645;51.448;6.260;2022-10-31T06:53:26;38.58;;;16.85;;
19024;SDS011;9645;51.448;6.260;2022-10-31T06:55:54;35.20;;;15.70;;
19024;SDS011;9645;51.448;6.260;2022-10-31T06:58:21;29.75;;;15.68;;
19024;SDS011;9645;51.448;6.260;2022-10-31T07:00:48;36.90;;;16.58;;
19024;SDS011;9645;51.448;6.260;2022-10-31T07:03:15;39.05;;;16.75;;
19024;SDS011;9645;51.448;6.260;2022-10-31T07:05:43;32.58;;;16.15;;
19024;SDS011;9645;51.448;6.260;2022-10-31T07:08:10;38.92;;;17.35;;
19024;SDS011;9645;51.448;6.260;2022-10-31T07:10:40;40.10;;;17.10;;
19024;SDS011;9645;51.448;6.260;2022-10-31T07:13:09;45.95;;;17.35;;
19024;SDS011;9645;51.448;6.260;2022-10-31T07:15:38;40.97;;;17.90;;
19024;SDS011;9645;51.448;6.260;2022-10-31T07:18:07;36.53;;;16.77;;
19024;SDS011;9645;51.448;6.260;2022-10-31T07:20:36;41.88;;;17.92;;
19024;SDS011;9645;51.448;6.260;2022-10-31T07:23:03;40.60;;;18.27;;
19024;SDS011;9645;51.448;6.260;2022-10-31T07:25:30;36.88;;;18.75;;
19024;SDS011;9645;51.448;6.260;2022-10-31T07:27:58;32.70;;;14.82;;
19024;SDS011;9645;51.448;6.260;2022-10-31T07:30:25;40.15;;;17.35;;
19024;SDS011;9645;51.448;6.260;2022-10-31T07:32:52;36.58;;;17.35;;
19024;SDS011;9645;51.448;6.260;2022-10-31T07:35:19;40.55;;;18.10;;
19024;SDS011;9645;51.448;6.260;2022-10-31T07:37:48;42.22;;;18.38;;
19024;SDS011;9645;51.448;6.260;2022-10-31T07:40:15;40.30;;;18.85;;
19024;SDS011;9645;51.448;6.260;2022-10-31T07:42:44;43.20;;;18.38;;
19024;SDS011;9645;51.448;6.260;2022-10-31T07:45:15;46.10;;;18.27;;
19024;SDS011;9645;51.448;6.260;2022-10-31T07:47:43;54.55;;;18.10;;
19024;SDS011;9645;51.448;6.260;2022-10-31T07:50:12;35.60;;;17.67;;
19024;SDS011;9645;51.448;6.260;2022-10-31T07:52:40;50.53;;;18.97;;
19024;SDS011;9645;51.448;6.260;2022-10-31T07:55:08;43.05;;;19.33;;
19024;SDS011;9645;51.448;6.260;2022-10-31T07:57:35;39.00;;;17.43;;
19024;SDS011;9645;51.448;6.260;2022-10-31T08:00:02;35.00;;;16.10;;
19024;SDS011;9645;51.448;6.260;2022-10-31T08:02:31;48.83;;;18.30;;
19024;SDS011;9645;51.448;6.260;2022-10-31T08:04:58;42.37;;;15.80;;
19024;SDS011;9645;51.448;6.260;2022-10-31T08:07:26;38.97;;;15.97;;
19024;SDS011;9645;51.448;6.260;2022-10-31T08:09:54;31.98;;;15.48;;
19024;SDS011;9645;51.448;6.260;2022-10-31T08:12:21;30.23;;;14.73;;
19024;SDS011;9645;51.448;6.260;2022-10-31T08:14:48;31.00;;;14.00;;
19024;SDS011;9645;51.448;6.260;2022-10-31T08:17:15;39.47;;;15.43;;
19024;SDS011;9645;51.448;6.260;2022-10-31T08:19:44;29.33;;;14.10;;
19024;SDS011;9645;51.448;6.260;2022-10-31T08:22:11;34.70;;;15.17;;
19024;SDS011;9645;51.448;6.260;2022-10-31T08:24:38;40.63;;;13.97;;
19024;SDS011;9645;51.448;6.260;2022-10-31T08:27:05;26.30;;;13.53;;
19024;SDS011;9645;51.448;6.260;2022-10-31T08:29:32;31.23;;;13.63;;
19024;SDS011;9645;51.448;6.260;2022-10-31T08:31:58;41.70;;;13.77;;
19024;SDS011;9645;51.448;6.260;2022-10-31T08:34:25;29.10;;;13.30;;
19024;SDS011;9645;51.448;6.260;2022-10-31T08:36:54;25.60;;;12.20;;
19024;SDS011;9645;51.448;6.260;2022-10-31T08:39:21;32.87;;;13.43;;
19024;SDS011;9645;51.448;6.260;2022-10-31T08:41:47;27.13;;;12.00;;
19024;SDS011;9645;51.448;6.260;2022-10-31T08:44:15;28.27;;;12.90;;
19024;SDS011;9645;51.448;6.260;2022-10-31T08:46:43;34.77;;;12.47;;
19024;SDS011;9645;51.448;6.260;2022-10-31T08:49:09;28.50;;;12.17;;
19024;SDS011;9645;51.448;6.260;2022-10-31T08:51:36;21.37;;;11.20;;
19024;SDS011;9645;51.448;6.260;2022-10-31T08:54:05;24.20;;;12.87;;
19024;SDS011;9645;51.448;6.260;2022-10-31T08:56:32;29.00;;;12.47;;
19024;SDS011;9645;51.448;6.260;2022-10-31T08:58:59;20.83;;;11.43;;
19024;SDS011;9645;51.448;6.260;2022-10-31T09:01:26;25.43;;;11.27;;
19024;SDS011;9645;51.448;6.260;2022-10-31T09:03:53;20.43;;;11.43;;
19024;SDS011;9645;51.448;6.260;2022-10-31T09:06:20;23.57;;;11.60;;
19024;SDS011;9645;51.448;6.260;2022-10-31T09:08:47;26.93;;;10.80;;
19024;SDS011;9645;51.448;6.260;2022-10-31T09:11:15;31.43;;;11.80;;
19024;SDS011;9645;51.448;6.260;2022-10-31T09:13:42;25.07;;;11.07;;
19024;SDS011;9645;51.448;6.260;2022-10-31T09:16:09;18.90;;;10.63;;
19024;SDS011;9645;51.448;6.260;2022-10-31T09:18:36;26.53;;;14.50;;
19024;SDS011;9645;51.448;6.260;2022-10-31T09:21:03;25.63;;;11.90;;
19024;SDS011;9645;51.448;6.260;2022-10-31T09:23:30;56.20;;;13.00;;
19024;SDS011;9645;51.448;6.260;2022-10-31T09:25:58;30.03;;;12.30;;
19024;SDS011;9645;51.448;6.260;2022-10-31T09:28:27;29.20;;;10.97;;
19024;SDS011;9645;51.448;6.260;2022-10-31T09:30:54;39.33;;;13.53;;
19024;SDS011;9645;51.448;6.260;2022-10-31T09:33:21;24.20;;;11.90;;
19024;SDS011;9645;51.448;6.260;2022-10-31T09:35:48;27.63;;;11.90;;
19024;SDS011;9645;51.448;6.260;2022-10-31T09:38:16;27.87;;;11.93;;
19024;SDS011;9645;51.448;6.260;2022-10-31T09:40:46;25.80;;;12.07;;
19024;SDS011;9645;51.448;6.260;2022-10-31T09:43:14;22.30;;;11.77;;
19024;SDS011;9645;51.448;6.260;2022-10-31T09:45:53;23.33;;;11.63;;
19024;SDS011;9645;51.448;6.260;2022-10-31T09:48:35;18.40;;;11.07;;
19024;SDS011;9645;51.448;6.260;2022-10-31T09:51:09;25.60;;;11.20;;
19024;SDS011;9645;51.448;6.260;2022-10-31T09:53:39;31.20;;;11.47;;
19024;SDS011;9645;51.448;6.260;2022-10-31T09:56:09;31.00;;;11.67;;
19024;SDS011;9645;51.448;6.260;2022-10-31T09:58:40;24.70;;;10.57;;
19024;SDS011;9645;51.448;6.260;2022-10-31T10:01:14;28.23;;;11.67;;
19024;SDS011;9645;51.448;6.260;2022-10-31T10:03:49;26.77;;;11.30;;
19024;SDS011;9645;51.448;6.260;2022-10-31T10:06:21;20.30;;;10.20;;
19024;SDS011;9645;51.448;6.260;2022-10-31T10:08:50;24.83;;;11.03;;
19024;SDS011;9645;51.448;6.260;2022-10-31T10:11:22;19.50;;;10.10;;
19024;SDS011;9645;51.448;6.260;2022-10-31T10:14:01;20.40;;;12.00;;
19024;SDS011;9645;51.448;6.260;2022-10-31T10:16:43;20.73;;;11.40;;
19024;SDS011;9645;51.448;6.260;2022-10-31T10:19:24;26.43;;;11.70;;
19024;SDS011;9645;51.448;6.260;2022-10-31T10:22:06;23.90;;;10.57;;
19024;SDS011;9645;51.448;6.260;2022-10-31T10:24:43;24.03;;;11.57;;
19024;SDS011;9645;51.448;6.260;2022-10-31T10:27:22;27.40;;;11.30;;
19024;SDS011;9645;51.448;6.260;2022-10-31T10:29:58;25.53;;;11.00;;
19024;SDS011;9645;51.448;6.260;2022-10-31T10:32:30;28.93;;;11.10;;
19024;SDS011;9645;51.448;6.260;2022-10-31T10:35:10;20.23;;;11.00;;
19024;SDS011;9645;51.448;6.260;2022-10-31T10:37:46;29.53;;;11.43;;
19024;SDS011;9645;51.448;6.260;2022-10-31T10:40:16;24.43;;;11.50;;
19024;SDS011;9645;51.448;6.260;2022-10-31T10:42:45;34.23;;;12.10;;
19024;SDS011;9645;51.448;6.260;2022-10-31T10:45:34;28.67;;;12.27;;
19024;SDS011;9645;51.448;6.260;2022-10-31T10:48:24;35.87;;;12.60;;
19024;SDS011;9645;51.448;6.260;2022-10-31T10:50:57;26.03;;;11.23;;
19024;SDS011;9645;51.448;6.260;2022-10-31T10:53:28;20.60;;;11.00;;
19024;SDS011;9645;51.448;6.260;2022-10-31T10:56:25;34.00;;;11.07;;
19024;SDS011;9645;51.448;6.260;2022-10-31T10:59:02;32.13;;;12.27;;
19024;SDS011;9645;51.448;6.260;2022-10-31T11:01:30;31.23;;;11.50;;
19024;SDS011;9645;51.448;6.260;2022-10-31T11:03:58;33.10;;;11.73;;
19024;SDS011;9645;51.448;6.260;2022-10-31T11:06:25;27.47;;;13.13;;
19024;SDS011;9645;51.448;6.260;2022-10-31T11:08:52;33.77;;;12.70;;
19024;SDS011;9645;51.448;6.260;2022-10-31T11:11:23;35.27;;;12.87;;
19024;SDS011;9645;51.448;6.260;2022-10-31T11:13:55;36.90;;;13.07;;
19024;SDS011;9645;51.448;6.260;2022-10-31T11:16:30;25.53;;;13.20;;
19024;SDS011;9645;51.448;6.260;2022-10-31T11:19:08;24.47;;;12.83;;
19024;SDS011;9645;51.448;6.260;2022-10-31T11:21:42;33.30;;;13.10;;
19024;SDS011;9645;51.448;6.260;2022-10-31T11:24:14;31.90;;;15.50;;
19024;SDS011;9645;51.448;6.260;2022-10-31T11:26:44;31.83;;;13.67;;
19024;SDS011;9645;51.448;6.260;2022-10-31T11:29:13;27.70;;;14.50;;
19024;SDS011;9645;51.448;6.260;2022-10-31T11:31:42;35.93;;;13.37;;
19024;SDS011;9645;51.448;6.260;2022-10-31T11:34:14;29.50;;;14.10;;
19024;SDS011;9645;51.448;6.260;2022-10-31T11:36:46;38.50;;;15.03;;
19024;SDS011;9645;51.448;6.260;2022-10-31T11:39:15;37.07;;;14.80;;
19024;SDS011;9645;51.448;6.260;2022-10-31T11:41:45;30.60;;;14.10;;
19024;SDS011;9645;51.448;6.260;2022-10-31T11:44:15;28.27;;;14.37;;
19024;SDS011;9645;51.448;6.260;2022-10-31T11:46:45;43.83;;;14.93;;
19024;SDS011;9645;51.448;6.260;2022-10-31T11:49:16;41.53;;;15.80;;
19024;SDS011;9645;51.448;6.260;2022-10-31T11:51:47;34.10;;;16.30;;
19024;SDS011;9645;51.448;6.260;2022-10-31T11:54:21;41.40;;;15.63;;
19024;SDS011;9645;51.448;6.260;2022-10-31T11:56:50;36.57;;;15.50;;
19024;SDS011;9645;51.448;6.260;2022-10-31T11:59:18;37.70;;;15.63;;
19024;SDS011;9645;51.448;6.260;2022-10-31T12:01:51;34.53;;;16.47;;
19024;SDS011;9645;51.448;6.260;2022-10-31T12:04:22;47.37;;;17.40;;
19024;SDS011;9645;51.448;6.260;2022-10-31T12:06:55;46.93;;;17.17;;
19024;SDS011;9645;51.448;6.260;2022-10-31T12:09:24;38.67;;;16.97;;
19024;SDS011;9645;51.448;6.260;2022-10-31T12:11:56;32.80;;;16.10;;
19024;SDS011;9645;51.448;6.260;2022-10-31T12:14:36;35.63;;;16.87;;
19024;SDS011;9645;51.448;6.260;2022-10-31T12:17:12;42.70;;;16.70;;
19024;SDS011;9645;51.448;6.260;2022-10-31T12:19:45;40.83;;;16.63;;
19024;SDS011;9645;51.448;6.260;2022-10-31T12:22:19;36.50;;;15.37;;
19024;SDS011;9645;51.448;6.260;2022-10-31T12:27:48;41.60;;;16.40;;
19024;SDS011;9645;51.448;6.260;2022-10-31T12:30:27;43.43;;;16.27;;
19024;SDS011;9645;51.448;6.260;2022-10-31T12:33:10;43.10;;;15.73;;
19024;SDS011;9645;51.448;6.260;2022-10-31T12:35:50;38.47;;;16.77;;
19024;SDS011;9645;51.448;6.260;2022-10-31T12:41:25;41.73;;;16.00;;
19024;SDS011;9645;51.448;6.260;2022-10-31T12:44:04;36.77;;;15.10;;
19024;SDS011;9645;51.448;6.260;2022-10-31T12:46:40;33.07;;;13.33;;
19024;SDS011;9645;51.448;6.260;2022-10-31T12:49:46;29.70;;;13.30;;
19024;SDS011;9645;51.448;6.260;2022-10-31T12:52:27;36.87;;;12.80;;
19024;SDS011;9645;51.448;6.260;2022-10-31T12:55:05;28.23;;;11.30;;
19024;SDS011;9645;51.448;6.260;2022-10-31T12:57:41;33.20;;;11.77;;
19024;SDS011;9645;51.448;6.260;2022-10-31T13:00:11;27.27;;;10.63;;
19024;SDS011;9645;51.448;6.260;2022-10-31T13:02:42;24.53;;;10.20;;
19024;SDS011;9645;51.448;6.260;2022-10-31T13:05:14;19.77;;;9.20;;
19024;SDS011;9645;51.448;6.260;2022-10-31T13:07:48;20.77;;;9.63;;
19024;SDS011;9645;51.448;6.260;2022-10-31T13:10:21;21.20;;;9.70;;
19024;SDS011;9645;51.448;6.260;2022-10-31T13:12:51;30.33;;;9.90;;
19024;SDS011;9645;51.448;6.260;2022-10-31T13:15:25;21.17;;;9.23;;
19024;SDS011;9645;51.448;6.260;2022-10-31T13:17:55;22.20;;;9.27;;
19024;SDS011;9645;51.448;6.260;2022-10-31T13:20:25;24.33;;;8.37;;
19024;SDS011;9645;51.448;6.260;2022-10-31T13:23:00;17.13;;;8.17;;
19024;SDS011;9645;51.448;6.260;2022-10-31T13:25:36;28.80;;;8.40;;
19024;SDS011;9645;51.448;6.260;2022-10-31T13:28:09;17.53;;;8.10;;
19024;SDS011;9645;51.448;6.260;2022-10-31T13:30:47;24.27;;;10.77;;
19024;SDS011;9645;51.448;6.260;2022-10-31T13:33:16;20.73;;;8.50;;
19024;SDS011;9645;51.448;6.260;2022-10-31T13:35:46;17.47;;;7.60;;
19024;SDS011;9645;51.448;6.260;2022-10-31T13:38:20;27.50;;;8.60;;
19024;SDS011;9645;51.448;6.260;2022-10-31T13:40:53;15.37;;;8.20;;
19024;SDS011;9645;51.448;6.260;2022-10-31T13:43:27;22.52;;;9.27;;
19024;SDS011;9645;51.448;6.260;2022-10-31T13:45:59;22.60;;;9.23;;
19024;SDS011;9645;51.448;6.260;2022-10-31T13:48:33;20.30;;;8.57;;
19024;SDS011;9645;51.448;6.260;2022-10-31T13:51:06;21.37;;;9.00;;
19024;SDS011;9645;51.448;6.260;2022-10-31T13:53:37;16.43;;;8.00;;
19024;SDS011;9645;51.448;6.260;2022-10-31T14:01:46;17.33;;;8.23;;
19024;SDS011;9645;51.448;6.260;2022-10-31T14:04:22;24.80;;;8.50;;
19024;SDS011;9645;51.448;6.260;2022-10-31T14:06:55;22.00;;;8.87;;
19024;SDS011;9645;51.448;6.260;2022-10-31T14:09:28;30.20;;;8.37;;
19024;SDS011;9645;51.448;6.260;2022-10-31T14:11:57;16.70;;;8.97;;
19024;SDS011;9645;51.448;6.260;2022-10-31T14:14:29;27.13;;;8.30;;
19024;SDS011;9645;51.448;6.260;2022-10-31T14:17:12;20.73;;;8.63;;
19024;SDS011;9645;51.448;6.260;2022-10-31T14:19:43;23.80;;;7.40;;
19024;SDS011;9645;51.448;6.260;2022-10-31T14:22:23;17.40;;;7.47;;
19024;SDS011;9645;51.448;6.260;2022-10-31T14:24:56;18.73;;;7.03;;
19024;SDS011;9645;51.448;6.260;2022-10-31T14:27:32;18.77;;;7.50;;
19024;SDS011;9645;51.448;6.260;2022-10-31T14:30:13;18.73;;;6.80;;
19024;SDS011;9645;51.448;6.260;2022-10-31T14:32:42;20.73;;;8.60;;
19024;SDS011;9645;51.448;6.260;2022-10-31T14:35:13;19.17;;;6.53;;
19024;SDS011;9645;51.448;6.260;2022-10-31T14:38:01;18.67;;;5.97;;
19024;SDS011;9645;51.448;6.260;2022-10-31T14:40:55;13.40;;;6.60;;
19024;SDS011;9645;51.448;6.260;2022-10-31T14:43:46;12.93;;;6.27;;
19024;SDS011;9645;51.448;6.260;2022-10-31T14:46:41;17.10;;;6.00;;
19024;SDS011;9645;51.448;6.260;2022-10-31T14:49:21;14.10;;;6.00;;
19024;SDS011;9645;51.448;6.260;2022-10-31T14:51:58;10.80;;;6.50;;
19024;SDS011;9645;51.448;6.260;2022-10-31T14:54:25;24.47;;;6.33;;
19024;SDS011;9645;51.448;6.260;2022-10-31T14:56:58;24.80;;;5.93;;
19024;SDS011;9645;51.448;6.260;2022-10-31T14:59:30;19.33;;;6.23;;
19024;SDS011;9645;51.448;6.260;2022-10-31T15:02:01;25.97;;;5.90;;
19024;SDS011;9645;51.448;6.260;2022-10-31T15:04:36;13.33;;;5.80;;
19024;SDS011;9645;51.448;6.260;2022-10-31T15:07:05;21.93;;;5.70;;
19024;SDS011;9645;51.448;6.260;2022-10-31T15:09:36;16.50;;;6.20;;
19024;SDS011;9645;51.448;6.260;2022-10-31T15:14:50;14.13;;;6.10;;